createdAt,value
2019-05-23T00:01:13.829Z,26.00
2019-05-23T00:04:01.486Z,21.27
2019-05-23T00:06:31.842Z,21.43
2019-05-23T00:09:00.898Z,22.13
2019-05-23T00:11:43.398Z,22.90
2019-05-23T00:14:37.802Z,24.00
2019-05-23T00:17:09.713Z,23.83
2019-05-23T00:19:38.345Z,23.77
2019-05-23T00:22:08.771Z,24.00
2019-05-23T00:24:38.860Z,28.77
2019-05-23T00:27:09.472Z,23.90
2019-05-23T00:29:40.522Z,26.10
2019-05-23T00:32:26.163Z,25.53
2019-05-23T00:34:56.183Z,25.87
2019-05-23T00:37:25.310Z,27.17
2019-05-23T00:39:54.334Z,24.93
2019-05-23T00:42:23.148Z,27.97
2019-05-23T00:44:52.294Z,26.93
2019-05-23T00:47:21.303Z,28.17
2019-05-23T00:49:50.341Z,32.57
2019-05-23T00:52:20.154Z,29.20
2019-05-23T00:54:50.012Z,25.50
2019-05-23T00:57:19.003Z,31.03
2019-05-23T00:59:49.198Z,31.07
2019-05-23T01:02:18.352Z,31.20
2019-05-23T01:04:47.220Z,27.03
2019-05-23T01:07:17.272Z,26.67
2019-05-23T01:09:46.414Z,27.70
2019-05-23T01:12:16.599Z,29.60
2019-05-23T01:14:47.175Z,31.30
2019-05-23T01:17:17.747Z,25.37
2019-05-23T01:19:46.327Z,27.13
2019-05-23T01:22:16.756Z,26.80
2019-05-23T01:24:47.036Z,30.13
2019-05-23T01:27:17.198Z,28.97
2019-05-23T01:29:50.172Z,29.23
2019-05-23T01:32:26.291Z,26.83
2019-05-23T01:34:56.983Z,27.50
2019-05-23T01:37:26.162Z,29.40
2019-05-23T01:39:55.571Z,28.80
2019-05-23T01:42:26.215Z,27.47
2019-05-23T01:44:55.903Z,26.20
2019-05-23T01:47:24.488Z,25.90
2019-05-23T01:49:53.393Z,26.60
2019-05-23T01:52:22.121Z,26.33
2019-05-23T01:54:50.842Z,28.93
2019-05-23T01:57:19.884Z,27.30
2019-05-23T01:59:48.473Z,25.87
2019-05-23T02:02:18.991Z,30.30
2019-05-23T02:04:48.527Z,25.40
2019-05-23T02:07:18.242Z,33.00
2019-05-23T02:09:46.816Z,25.63
2019-05-23T02:12:17.207Z,25.47
2019-05-23T02:14:46.534Z,25.37
2019-05-23T02:17:16.025Z,29.37
2019-05-23T02:19:45.085Z,27.57
2019-05-23T02:22:14.333Z,27.90
2019-05-23T02:24:44.280Z,27.80
2019-05-23T02:27:13.035Z,30.47
2019-05-23T02:29:43.038Z,29.87
2019-05-23T02:32:12.851Z,32.83
2019-05-23T02:34:41.891Z,27.17
2019-05-23T02:37:30.720Z,26.53
2019-05-23T02:40:01.197Z,29.60
2019-05-23T02:42:37.004Z,30.47
2019-05-23T02:45:09.430Z,30.27
2019-05-23T02:47:42.948Z,32.30
2019-05-23T02:50:16.237Z,31.87
2019-05-23T02:52:48.278Z,34.20
2019-05-23T02:55:23.917Z,28.97
2019-05-23T02:57:54.324Z,36.93
2019-05-23T03:00:53.502Z,30.53
2019-05-23T03:03:17.285Z,33.63
2019-05-23T03:05:48.306Z,35.30
2019-05-23T03:08:17.294Z,33.57
2019-05-23T03:10:58.135Z,35.40
2019-05-23T03:13:30.196Z,31.83
2019-05-23T03:16:00.526Z,35.03
2019-05-23T03:18:34.587Z,37.47
2019-05-23T03:21:03.950Z,34.20
2019-05-23T03:23:32.740Z,34.83
2019-05-23T03:26:26.328Z,41.23
2019-05-23T03:28:56.041Z,34.30
2019-05-23T03:31:30.586Z,36.97
2019-05-23T03:33:57.265Z,37.07
2019-05-23T03:36:26.454Z,34.67
2019-05-23T03:38:55.476Z,37.77
2019-05-23T03:41:25.272Z,38.87
2019-05-23T03:43:54.144Z,42.50
2019-05-23T03:46:27.211Z,39.03
2019-05-23T03:48:56.173Z,45.87
2019-05-23T03:51:25.126Z,40.40
2019-05-23T03:53:54.684Z,44.20
2019-05-23T03:56:24.898Z,42.60
2019-05-23T03:58:56.086Z,43.43
2019-05-23T04:01:43.986Z,41.43
2019-05-23T04:03:58.648Z,41.97
2019-05-23T04:06:28.338Z,46.93
2019-05-23T04:08:57.288Z,41.10
2019-05-23T04:11:26.258Z,43.60
2019-05-23T04:13:55.247Z,43.20
2019-05-23T04:16:30.066Z,46.10
2019-05-23T04:18:55.771Z,45.57
2019-05-23T04:21:25.363Z,48.07
2019-05-23T04:23:54.310Z,40.73
2019-05-23T04:26:23.661Z,51.60
2019-05-23T04:28:52.755Z,44.77
2019-05-23T04:31:22.241Z,45.13
2019-05-23T04:33:51.012Z,44.53
2019-05-23T04:36:20.459Z,48.67
2019-05-23T04:38:49.691Z,43.60
2019-05-23T04:41:18.637Z,49.43
2019-05-23T04:43:47.545Z,48.13
2019-05-23T04:46:16.317Z,45.60
2019-05-23T04:48:45.282Z,48.03
2019-05-23T04:51:14.081Z,46.70
2019-05-23T04:53:42.900Z,47.73
2019-05-23T04:56:11.446Z,46.17
2019-05-23T04:58:40.528Z,50.40
2019-05-23T05:01:10.056Z,46.70
2019-05-23T05:03:39.368Z,49.47
2019-05-23T05:06:08.460Z,48.20
2019-05-23T05:08:37.169Z,51.33
2019-05-23T05:11:06.498Z,47.67
2019-05-23T05:13:35.344Z,44.50
2019-05-23T05:16:04.837Z,48.50
2019-05-23T05:18:33.617Z,47.50
2019-05-23T05:21:02.504Z,52.17
2019-05-23T05:23:31.192Z,54.20
2019-05-23T05:25:59.970Z,57.13
2019-05-23T05:28:28.522Z,58.73
2019-05-23T05:30:57.447Z,50.97
2019-05-23T05:33:26.213Z,53.93
2019-05-23T05:35:54.795Z,57.50
2019-05-23T05:38:23.836Z,57.63
2019-05-23T05:40:52.754Z,58.43
2019-05-23T05:43:21.583Z,50.20
2019-05-23T05:45:50.236Z,49.60
2019-05-23T05:48:18.963Z,51.70
2019-05-23T05:50:48.158Z,55.30
2019-05-23T05:53:16.991Z,49.23
2019-05-23T05:55:45.722Z,47.17
2019-05-23T05:58:18.010Z,56.00
2019-05-23T06:00:51.435Z,50.67
2019-05-23T06:03:20.216Z,55.98
2019-05-23T06:05:50.503Z,49.83
2019-05-23T06:08:21.132Z,48.93
2019-05-23T06:10:50.039Z,50.37
2019-05-23T06:13:18.881Z,48.47
2019-05-23T06:15:48.977Z,49.87
2019-05-23T06:18:17.767Z,49.93
2019-05-23T06:20:47.755Z,49.30
2019-05-23T06:23:18.996Z,54.33
2019-05-23T06:25:47.872Z,51.23
2019-05-23T06:28:16.897Z,51.10
2019-05-23T06:30:46.484Z,52.77
2019-05-23T06:33:23.298Z,49.27
2019-05-23T06:35:45.663Z,49.47
2019-05-23T06:38:14.607Z,54.73
2019-05-23T06:40:43.422Z,55.03
2019-05-23T06:43:12.163Z,54.20
2019-05-23T06:45:42.729Z,50.67
2019-05-23T06:48:14.151Z,58.27
2019-05-23T06:50:42.808Z,55.07
2019-05-23T06:53:11.719Z,58.27
2019-05-23T06:55:40.512Z,57.23
2019-05-23T06:58:09.738Z,54.57
2019-05-23T07:00:38.993Z,54.97
2019-05-23T07:03:08.026Z,56.00
2019-05-23T07:05:37.703Z,52.10
2019-05-23T07:08:07.393Z,54.20
2019-05-23T07:10:36.493Z,53.50
2019-05-23T07:13:05.630Z,53.35
2019-05-23T07:15:34.455Z,57.27
2019-05-23T07:18:03.448Z,56.15
2019-05-23T07:20:32.291Z,51.60
2019-05-23T07:23:01.698Z,56.25
2019-05-23T07:25:30.744Z,54.93
2019-05-23T07:28:00.471Z,58.48
2019-05-23T07:30:29.361Z,51.05
2019-05-23T07:32:58.142Z,60.80
2019-05-23T07:35:26.906Z,57.00
2019-05-23T07:37:56.256Z,49.80
2019-05-23T07:40:28.069Z,55.92
2019-05-23T07:42:56.915Z,54.03
2019-05-23T07:45:27.311Z,62.08
2019-05-23T07:47:55.939Z,57.70
2019-05-23T07:50:24.842Z,40.23
2019-05-23T07:52:55.182Z,54.50
2019-05-23T07:55:28.099Z,37.55
2019-05-23T07:57:56.967Z,36.95
2019-05-23T08:00:29.730Z,27.77
2019-05-23T08:03:00.003Z,34.88
2019-05-23T08:05:29.418Z,35.78
2019-05-23T08:07:58.372Z,35.33
2019-05-23T08:10:33.541Z,37.17
2019-05-23T08:12:57.945Z,33.55
2019-05-23T08:15:27.984Z,34.40
2019-05-23T08:17:57.076Z,28.77
2019-05-23T08:20:26.802Z,32.45
2019-05-23T08:22:55.496Z,31.57
2019-05-23T08:25:24.327Z,32.88
2019-05-23T08:27:53.135Z,30.77
2019-05-23T08:30:22.332Z,35.35
2019-05-23T08:32:51.328Z,28.52
2019-05-23T08:35:20.853Z,28.00
2019-05-23T08:37:49.972Z,26.82
2019-05-23T08:40:18.810Z,26.20
2019-05-23T08:42:47.537Z,25.45
2019-05-23T08:45:17.697Z,23.80
2019-05-23T08:47:46.714Z,21.17
2019-05-23T08:50:16.965Z,23.00
2019-05-23T08:52:46.195Z,21.70
2019-05-23T08:55:23.990Z,19.73
2019-05-23T08:57:56.945Z,20.75
2019-05-23T09:00:27.666Z,19.12
2019-05-23T09:02:58.621Z,20.27
2019-05-23T09:05:34.963Z,21.75
2019-05-23T09:08:03.786Z,22.20
2019-05-23T09:10:32.941Z,23.83
2019-05-23T09:13:01.870Z,18.57
2019-05-23T09:15:30.670Z,16.40
2019-05-23T09:17:59.693Z,16.82
2019-05-23T09:20:28.500Z,15.15
2019-05-23T09:22:57.130Z,16.60
2019-05-23T09:25:25.927Z,13.53
2019-05-23T09:27:55.321Z,17.65
2019-05-23T09:30:25.028Z,18.77
2019-05-23T09:32:54.028Z,14.30
2019-05-23T09:35:23.028Z,15.68
2019-05-23T09:37:51.821Z,13.30
2019-05-23T09:40:21.237Z,22.00
2019-05-23T09:42:49.973Z,15.58
2019-05-23T09:45:18.926Z,17.07
2019-05-23T09:47:51.099Z,14.45
2019-05-23T09:50:20.141Z,16.25
2019-05-23T09:52:48.791Z,17.30
2019-05-23T09:55:18.584Z,17.30
2019-05-23T09:57:47.328Z,15.63
2019-05-23T10:00:19.562Z,13.83
2019-05-23T10:02:48.246Z,13.88
2019-05-23T10:05:17.581Z,15.10
2019-05-23T10:07:46.186Z,14.55
2019-05-23T10:10:17.766Z,11.65
2019-05-23T10:12:46.861Z,10.48
2019-05-23T10:15:20.766Z,16.37
2019-05-23T10:17:49.385Z,13.18
2019-05-23T10:20:18.782Z,9.93
2019-05-23T10:22:47.260Z,12.53
2019-05-23T10:25:16.401Z,13.08
2019-05-23T10:27:45.093Z,19.45
2019-05-23T10:30:15.781Z,15.60
2019-05-23T10:32:44.396Z,16.82
2019-05-23T10:35:14.888Z,16.93
2019-05-23T10:37:43.504Z,18.02
2019-05-23T10:40:14.456Z,16.55
2019-05-23T10:42:43.119Z,15.40
2019-05-23T10:45:12.511Z,15.32
2019-05-23T10:47:41.160Z,13.88
2019-05-23T10:50:10.457Z,15.70
2019-05-23T10:52:39.140Z,18.23
2019-05-23T10:55:08.376Z,15.38
2019-05-23T10:57:37.326Z,10.85
2019-05-23T11:00:07.912Z,13.48
2019-05-23T11:02:37.219Z,13.48
2019-05-23T11:05:13.069Z,13.28
2019-05-23T11:07:38.536Z,15.10
2019-05-23T11:10:07.880Z,11.20
2019-05-23T11:12:37.277Z,10.78
2019-05-23T11:15:07.377Z,10.28
2019-05-23T11:17:37.034Z,9.98
2019-05-23T11:20:08.475Z,9.68
2019-05-23T11:22:37.099Z,9.68
2019-05-23T11:25:08.581Z,14.10
2019-05-23T11:27:37.280Z,18.17
2019-05-23T11:30:11.403Z,9.18
2019-05-23T11:32:40.085Z,11.70
2019-05-23T11:35:09.078Z,8.85
2019-05-23T11:37:37.720Z,15.35
2019-05-23T11:40:07.448Z,11.55
2019-05-23T11:42:36.765Z,14.68
2019-05-23T11:45:09.592Z,10.30
2019-05-23T11:47:38.340Z,11.05
2019-05-23T11:50:08.169Z,12.70
2019-05-23T11:52:37.467Z,12.37
2019-05-23T11:55:07.741Z,11.80
2019-05-23T11:57:38.448Z,12.33
2019-05-23T12:00:09.590Z,14.15
2019-05-23T12:02:40.428Z,12.18
2019-05-23T12:05:11.103Z,11.73
2019-05-23T12:07:40.023Z,12.25
2019-05-23T12:10:09.692Z,13.55
2019-05-23T12:12:38.416Z,10.90
2019-05-23T12:15:12.033Z,10.23
2019-05-23T12:17:41.234Z,10.30
2019-05-23T12:20:10.803Z,8.88
2019-05-23T12:22:40.104Z,8.88
2019-05-23T12:25:21.411Z,19.12
2019-05-23T12:27:52.833Z,13.53
2019-05-23T12:30:22.775Z,11.10
2019-05-23T12:32:51.360Z,15.72
2019-05-23T12:35:19.978Z,12.37
2019-05-23T12:37:49.105Z,14.10
2019-05-23T12:40:18.260Z,10.98
2019-05-23T12:42:46.960Z,11.18
2019-05-23T12:45:16.735Z,12.43
2019-05-23T12:47:53.300Z,8.08
2019-05-23T12:50:35.762Z,11.57
2019-05-23T12:53:04.682Z,9.63
2019-05-23T12:55:33.232Z,11.93
2019-05-23T12:58:02.159Z,11.43
2019-05-23T13:00:41.721Z,12.68
2019-05-23T13:03:12.826Z,12.15
2019-05-23T13:05:42.195Z,14.23
2019-05-23T13:08:10.938Z,14.60
2019-05-23T13:10:39.830Z,14.43
2019-05-23T13:13:08.824Z,7.78
2019-05-23T13:15:37.635Z,12.00
2019-05-23T13:18:06.456Z,18.17
2019-05-23T13:20:35.557Z,10.05
2019-05-23T13:23:04.473Z,13.00
2019-05-23T13:25:33.316Z,11.55
2019-05-23T13:28:02.128Z,7.45
2019-05-23T13:30:30.955Z,7.42
2019-05-23T13:33:03.430Z,10.25
2019-05-23T13:35:30.295Z,15.23
2019-05-23T13:37:59.184Z,11.00
2019-05-23T13:40:28.156Z,6.78
2019-05-23T13:42:57.327Z,12.30
2019-05-23T13:45:26.151Z,9.70
2019-05-23T13:47:54.957Z,11.20
2019-05-23T13:50:23.677Z,10.23
2019-05-23T13:52:52.935Z,5.80
2019-05-23T13:55:21.959Z,8.65
2019-05-23T13:57:50.623Z,9.30
2019-05-23T14:00:20.827Z,7.85
2019-05-23T14:02:49.710Z,7.67
2019-05-23T14:05:19.771Z,8.08
2019-05-23T14:07:48.508Z,7.92
2019-05-23T14:10:17.466Z,5.80
2019-05-23T14:12:46.646Z,12.13
2019-05-23T14:15:16.931Z,7.85
2019-05-23T14:17:46.887Z,10.82
2019-05-23T14:20:16.067Z,5.03
2019-05-23T14:22:50.155Z,8.40
2019-05-23T14:25:19.167Z,9.28
2019-05-23T14:27:52.260Z,6.65
2019-05-23T14:30:35.446Z,7.20
2019-05-23T14:33:06.025Z,7.47
2019-05-23T14:35:36.681Z,7.42
2019-05-23T14:38:07.334Z,5.53
2019-05-23T14:40:36.184Z,10.72
2019-05-23T14:43:09.663Z,11.53
2019-05-23T14:45:56.152Z,6.08
2019-05-23T14:48:26.419Z,7.55
2019-05-23T14:50:56.763Z,4.75
2019-05-23T14:53:33.099Z,10.48
2019-05-23T14:56:01.739Z,6.62
2019-05-23T14:58:31.740Z,8.25
2019-05-23T15:01:00.589Z,8.70
2019-05-23T15:03:29.999Z,8.50
2019-05-23T15:05:58.632Z,8.78
2019-05-23T15:08:27.561Z,5.85
2019-05-23T15:10:56.095Z,7.60
2019-05-23T15:13:24.869Z,6.55
2019-05-23T15:15:53.467Z,10.13
2019-05-23T15:18:22.146Z,7.37
2019-05-23T15:20:50.833Z,6.03
2019-05-23T15:23:19.514Z,6.25
2019-05-23T15:25:48.130Z,7.62
2019-05-23T15:28:16.867Z,6.03
2019-05-23T15:30:45.558Z,4.17
2019-05-23T15:33:14.383Z,6.47
2019-05-23T15:35:43.277Z,3.75
2019-05-23T15:38:12.075Z,6.20
2019-05-23T15:40:40.977Z,4.22
2019-05-23T15:43:10.514Z,6.62
2019-05-23T15:45:39.373Z,5.70
2019-05-23T15:48:08.014Z,5.25
2019-05-23T15:50:38.327Z,5.90
2019-05-23T15:53:11.504Z,7.58
2019-05-23T15:55:50.870Z,4.70
2019-05-23T15:58:22.216Z,6.78
2019-05-23T16:00:55.911Z,7.20
2019-05-23T16:03:42.611Z,4.65
2019-05-23T16:06:13.347Z,5.25
2019-05-23T16:08:42.457Z,7.65
2019-05-23T16:11:11.382Z,7.65
2019-05-23T16:13:40.769Z,3.98
2019-05-23T16:16:09.493Z,5.28
2019-05-23T16:18:38.419Z,10.00
2019-05-23T16:21:07.910Z,4.78
2019-05-23T16:23:36.454Z,3.20
2019-05-23T16:26:05.359Z,10.98
2019-05-23T16:28:33.913Z,4.37
2019-05-23T16:31:02.504Z,3.60
2019-05-23T16:33:31.186Z,9.65
2019-05-23T16:36:00.065Z,2.85
2019-05-23T16:38:28.687Z,10.28
2019-05-23T16:40:57.514Z,5.42
2019-05-23T16:43:26.266Z,5.33
2019-05-23T16:45:54.972Z,6.33
2019-05-23T16:48:23.621Z,3.75
2019-05-23T16:50:52.161Z,8.15
2019-05-23T16:53:21.072Z,5.10
2019-05-23T16:56:00.710Z,6.85
2019-05-23T16:58:31.025Z,9.58
2019-05-23T17:01:04.635Z,6.30
2019-05-23T17:03:37.892Z,8.18
2019-05-23T17:06:08.988Z,3.47
2019-05-23T17:08:48.260Z,6.25
2019-05-23T17:11:33.596Z,6.70
2019-05-23T17:14:12.684Z,7.25
2019-05-23T17:16:43.075Z,4.92
2019-05-23T17:19:13.531Z,3.92
2019-05-23T17:21:43.736Z,8.90
2019-05-23T17:24:14.251Z,5.40
2019-05-23T17:26:50.267Z,6.03
2019-05-23T17:29:20.826Z,6.50
2019-05-23T17:31:51.484Z,8.30
2019-05-23T17:34:20.346Z,6.95
2019-05-23T17:36:49.343Z,7.60
2019-05-23T17:39:18.594Z,7.72
2019-05-23T17:41:47.222Z,9.85
2019-05-23T17:44:16.346Z,4.85
2019-05-23T17:46:45.058Z,5.05
2019-05-23T17:49:14.007Z,4.33
2019-05-23T17:51:42.779Z,5.40
2019-05-23T17:54:12.020Z,7.00
2019-05-23T17:56:40.672Z,7.03
2019-05-23T17:59:09.464Z,7.03
2019-05-23T18:01:38.354Z,7.17
2019-05-23T18:04:07.424Z,5.47
2019-05-23T18:06:36.435Z,10.63
2019-05-23T18:09:08.537Z,7.20
2019-05-23T18:11:37.531Z,7.40
2019-05-23T18:14:07.754Z,7.55
2019-05-23T18:16:37.455Z,8.35
2019-05-23T18:19:07.816Z,10.48
2019-05-23T18:21:36.700Z,8.38
2019-05-23T18:24:06.394Z,7.65
2019-05-23T18:26:39.494Z,6.60
2019-05-23T18:29:08.619Z,7.35
2019-05-23T18:31:38.864Z,13.00
2019-05-23T18:34:09.363Z,6.55
2019-05-23T18:36:38.509Z,9.68
2019-05-23T18:39:10.299Z,11.83
2019-05-23T18:41:39.696Z,6.15
2019-05-23T18:44:08.505Z,8.23
2019-05-23T18:46:45.124Z,9.03
2019-05-23T18:49:15.102Z,8.00
2019-05-23T18:51:43.814Z,13.20
2019-05-23T18:54:12.556Z,12.43
2019-05-23T18:56:41.207Z,15.28
2019-05-23T18:59:11.499Z,18.90
2019-05-23T19:01:40.521Z,15.08
2019-05-23T19:04:09.442Z,15.98
2019-05-23T19:06:38.822Z,16.30
2019-05-23T19:09:11.209Z,16.00
2019-05-23T19:11:41.073Z,16.10
2019-05-23T19:14:10.094Z,17.75
2019-05-23T19:16:39.896Z,15.38
2019-05-23T19:19:08.693Z,12.47
2019-05-23T19:21:37.574Z,13.50
2019-05-23T19:24:06.310Z,10.88
2019-05-23T19:26:35.287Z,9.83
2019-05-23T19:29:04.531Z,10.75
2019-05-23T19:31:33.244Z,9.28
2019-05-23T19:34:02.144Z,8.73
2019-05-23T19:36:31.081Z,10.88
2019-05-23T19:39:00.729Z,6.15
2019-05-23T19:41:37.380Z,9.35
2019-05-23T19:44:00.073Z,10.00
2019-05-23T19:46:29.213Z,8.05
2019-05-23T19:48:58.158Z,7.42
2019-05-23T19:51:26.907Z,8.45
2019-05-23T19:53:55.906Z,5.75
2019-05-23T19:56:24.906Z,4.60
2019-05-23T19:58:53.617Z,6.22
2019-05-23T20:01:22.603Z,8.08
2019-05-23T20:03:51.800Z,5.67
2019-05-23T20:06:20.961Z,4.55
2019-05-23T20:08:49.671Z,7.83
2019-05-23T20:11:18.576Z,7.90
2019-05-23T20:13:47.384Z,4.25
2019-05-23T20:16:16.383Z,5.53
2019-05-23T20:18:45.129Z,8.28
2019-05-23T20:21:13.928Z,6.80
2019-05-23T20:23:42.662Z,5.72
2019-05-23T20:26:11.428Z,8.75
2019-05-23T20:28:40.518Z,7.28
2019-05-23T20:31:09.352Z,4.47
2019-05-23T20:33:38.187Z,6.72
2019-05-23T20:36:11.980Z,9.68
2019-05-23T20:38:39.247Z,6.65
2019-05-23T20:41:08.605Z,6.75
2019-05-23T20:43:37.186Z,8.78
2019-05-23T20:46:06.100Z,7.67
2019-05-23T20:48:35.184Z,7.15
2019-05-23T20:51:08.738Z,8.00
2019-05-23T20:53:37.471Z,8.30
2019-05-23T20:56:06.394Z,6.00
2019-05-23T20:58:35.181Z,8.33
2019-05-23T21:01:11.277Z,9.60
2019-05-23T21:03:40.192Z,8.63
2019-05-23T21:06:08.958Z,10.85
2019-05-23T21:08:37.652Z,7.17
2019-05-23T21:11:06.538Z,8.60
2019-05-23T21:13:35.561Z,8.75
2019-05-23T21:16:06.345Z,5.35
2019-05-23T21:18:34.960Z,5.80
2019-05-23T21:21:03.705Z,6.53
2019-05-23T21:23:32.331Z,5.40
2019-05-23T21:26:05.598Z,5.45
2019-05-23T21:28:34.300Z,6.42
2019-05-23T21:31:05.191Z,4.62
2019-05-23T21:33:33.803Z,4.95
2019-05-23T21:36:02.914Z,4.95
2019-05-23T21:38:31.867Z,5.72
2019-05-23T21:41:03.155Z,4.72
2019-05-23T21:43:30.791Z,5.25
2019-05-23T21:45:59.502Z,3.90
2019-05-23T21:48:28.140Z,5.75
2019-05-23T21:50:56.908Z,5.70
2019-05-23T21:53:25.557Z,4.17
2019-05-23T21:55:54.434Z,3.72
2019-05-23T21:58:23.192Z,3.67
2019-05-23T22:01:02.327Z,4.70
2019-05-23T22:03:32.763Z,13.65
2019-05-23T22:06:02.017Z,7.05
2019-05-23T22:08:30.823Z,3.77
2019-05-23T22:10:59.346Z,2.80
2019-05-23T22:13:28.117Z,6.05
2019-05-23T22:15:59.580Z,4.47
2019-05-23T22:18:29.903Z,5.33
2019-05-23T22:20:58.592Z,4.58
2019-05-23T22:23:27.257Z,5.75
2019-05-23T22:25:55.867Z,3.55
2019-05-23T22:28:24.733Z,5.37
2019-05-23T22:30:53.452Z,5.35
2019-05-23T22:33:26.903Z,4.35
2019-05-23T22:35:56.147Z,6.30
2019-05-23T22:38:24.939Z,6.03
2019-05-23T22:40:53.429Z,4.70
2019-05-23T22:43:22.392Z,5.53
2019-05-23T22:45:51.092Z,5.12
2019-05-23T22:48:20.231Z,4.20
2019-05-23T22:50:48.783Z,3.95
2019-05-23T22:53:17.346Z,5.12
2019-05-23T22:55:45.962Z,4.12
2019-05-23T22:58:14.862Z,4.47
2019-05-23T23:00:45.260Z,4.50
2019-05-23T23:03:14.005Z,5.85
2019-05-23T23:05:42.703Z,2.77
2019-05-23T23:08:11.457Z,4.15
2019-05-23T23:10:40.827Z,6.53
2019-05-23T23:13:09.571Z,3.42
2019-05-23T23:15:38.350Z,5.47
2019-05-23T23:18:07.899Z,3.52
2019-05-23T23:20:36.551Z,6.62
2019-05-23T23:23:05.292Z,2.42
2019-05-23T23:25:34.220Z,3.42
2019-05-23T23:28:02.895Z,4.28
2019-05-23T23:30:33.163Z,3.50
2019-05-23T23:33:01.782Z,4.75
2019-05-23T23:35:30.416Z,3.77
2019-05-23T23:37:58.961Z,6.20
2019-05-23T23:40:28.264Z,5.97
2019-05-23T23:42:57.093Z,5.67
2019-05-23T23:45:43.644Z,5.15
2019-05-23T23:48:29.741Z,7.15
2019-05-23T23:51:16.258Z,6.72
2019-05-23T23:54:02.925Z,4.53
2019-05-23T23:56:49.799Z,6.72
2019-05-23T23:59:18.297Z,5.78
